Wausau, WI

2:05 AM CDT on April 28, 2017 (GMT -0500)
Stettin | | Change Station

Elev 1214 ft 44.96 °N, 89.69 °W | Updated 14 minutes ago

Overcast
Overcast
30.0 °F
Feels Like 30 °F
N
1.7
Wind Variable Wind from NE

Today
High -- | Low -- °F
--% Chance of Precip.
Yesterday
High -- | Low -- °F
Precip. -- in
Pressure 29.81 in
Visibility 10.0 miles
Clouds Overcast 2200 ft
Windchill 30 °F
Dew Point 27 °F
Humidity 88%
Rainfall 0.00 in
Snow Depth Not available.
5:52 AM 8:00 PM
Waxing Crescent, 5% visible
METAR KAUW 280654Z AUTO 27014G20KT 10SM OVC022 M01/M04 A2975 RMK AO2 UPE04 SLP092 P0000 T10111039
Pressure 29.81 in
Visibility 10.0 miles
Clouds Overcast 2200 ft
Windchill 30 °F
Dew Point 27 °F
Humidity 88%
Rainfall 0.00 in
Snow Depth Not available.
5:52 AM 8:00 PM
Waxing Crescent, 5% visible
METAR KAUW 280654Z AUTO 27014G20KT 10SM OVC022 M01/M04 A2975 RMK AO2 UPE04 SLP092 P0000 T10111039

Get Severe Weather Alerts

Thanks for signing up!

Be on the lookout for a verification email in your inbox.

You'll start receiving the daily forecast at 8 AM.

×

10-Day Weather Forecast

Almanac

Astronomy

Apr. 28, 2017 Rise Set
Actual Time
Civil Twilight
Nautical Twilight
Astronomical Twilight
Moon
Length of Visible Light
Length of Day
Tomorrow will be .
, % of the Moon is Illuminated

Today's Extremes

State Highs State Lows

Community

WunderPhotos

WunderBlog® & News

Nearby

Air Quality

  Air Quality AQ Index Pollutant
Not available.

Snow Depth

Station Depth Elevation

Earthquake Activity

City Distance Mag. Time & Date
Minimum magnitude displayed is 2.5.

Coastal Water Temperatures

Place Temperature

Stations

Nearby Weather Stations

Station Location Temp. Windchill Dew Point Humidity Wind Precip. Elev Updated Type
                   

Watches & Warnings

There are currently no watches in effect.